Time;durP1;ratioP1;P1;durP2;ratioP2;P2;SDS_P1;SDS_P2;PMS_P1;PMS_P2;Temp;Humidity;BMP_temperature;BMP_pressure;BME280_temperature;BME280_humidity;BME280_pressure;Samples;Min_cycle;Max_cycle;Signal;HPM_P1;HPM_P2
2021/12/11 00:01:03;;;;;;;5.95;2.03;;;19.60;61.30;;;;;;4495274;31;20265;-85
2021/12/11 00:03:34;;;;;;;4.90;1.73;;;19.60;61.30;;;;;;4496752;31;20270;-84
2021/12/11 00:06:11;;;;;;;4.45;1.65;;;19.60;61.30;;;;;;4493919;31;20145;-84
2021/12/11 00:08:38;;;;;;;6.40;1.92;;;19.60;61.30;;;;;;4498420;31;20132;-84
2021/12/11 00:11:09;;;;;;;8.20;2.20;;;19.60;61.40;;;;;;4503628;31;20137;-83
2021/12/11 00:13:40;;;;;;;7.00;2.20;;;19.50;61.30;;;;;;4496079;31;20125;-83
2021/12/11 00:16:09;;;;;;;5.97;2.10;;;19.50;61.30;;;;;;4497639;31;20125;-83
2021/12/11 00:18:36;;;;;;;6.55;1.88;;;19.50;61.30;;;;;;4495249;31;20146;-84
2021/12/11 00:21:23;;;;;;;5.72;1.80;;;19.50;61.40;;;;;;4495457;31;20772;-84
2021/12/11 00:23:52;;;;;;;4.65;1.63;;;19.50;61.30;;;;;;4495414;31;20144;-85
2021/12/11 00:26:46;;;;;;;4.72;1.48;;;19.40;61.40;;;;;;4495428;31;20277;-85
2021/12/11 00:29:14;;;;;;;4.88;2.10;;;19.40;61.40;;;;;;4496096;31;20129;-85
2021/12/11 00:31:46;;;;;;;4.30;1.80;;;19.40;61.40;;;;;;4494397;31;20278;-84
2021/12/11 00:34:16;;;;;;;5.50;1.80;;;19.40;61.50;;;;;;4495975;31;20628;-83
2021/12/11 00:36:53;;;;;;;4.85;1.70;;;19.30;61.40;;;;;;4495616;31;20142;-83
2021/12/11 00:39:20;;;;;;;2.53;1.60;;;19.30;61.40;;;;;;4498121;31;20171;-83
2021/12/11 00:41:53;;;;;;;6.25;2.20;;;19.30;61.50;;;;;;4496001;31;20548;-82
2021/12/11 00:44:36;;;;;;;5.07;1.65;;;19.30;61.50;;;;;;4494750;31;20222;-84
2021/12/11 00:47:29;;;;;;;4.45;1.80;;;19.30;61.50;;;;;;4496084;31;20183;-84
2021/12/11 00:50:00;;;;;;;5.90;1.80;;;19.30;61.50;;;;;;4500061;31;20141;-84
2021/12/11 00:52:27;;;;;;;6.13;1.60;;;19.30;61.50;;;;;;4506912;31;20311;-82
2021/12/11 00:54:53;;;;;;;6.10;1.60;;;19.20;61.60;;;;;;4497767;31;20132;-83
2021/12/11 00:57:20;;;;;;;4.10;1.83;;;19.20;61.50;;;;;;4494620;31;20267;-83
2021/12/11 00:59:47;;;;;;;4.30;1.50;;;19.20;61.50;;;;;;4495142;31;20198;-83
2021/12/11 01:02:14;;;;;;;3.92;1.58;;;19.10;61.40;;;;;;4495449;31;20124;-83
2021/12/11 01:04:43;;;;;;;3.58;1.60;;;19.20;61.60;;;;;;4496024;31;20151;-84
2021/12/11 01:07:22;;;;;;;4.70;1.48;;;19.10;61.50;;;;;;4495300;31;20145;-84
2021/12/11 01:10:00;;;;;;;6.78;1.40;;;19.10;61.50;;;;;;4495100;31;20136;-83
2021/12/11 01:12:39;;;;;;;3.80;1.70;;;19.10;61.60;;;;;;4497043;31;20141;-84
2021/12/11 01:15:16;;;;;;;6.78;1.73;;;19.10;61.60;;;;;;4494035;31;20203;-84
2021/12/11 01:18:43;;;;;;;1.92;1.40;;;19.10;61.60;;;;;;4495159;31;20142;-82
2021/12/11 01:20:57;;;;;;;6.85;1.55;;;19.10;61.50;;;;;;4492509;31;20748;-85
2021/12/11 01:26:20;;;;;;;2.95;1.50;;;19.00;61.50;;;;;;4479258;31;20155;-83
2021/12/11 01:28:51;;;;;;;2.92;1.50;;;19.00;61.60;;;;;;4495716;31;20144;-83
2021/12/11 01:31:20;;;;;;;3.72;1.75;;;19.00;61.60;;;;;;4494151;31;20271;-83
2021/12/11 01:33:46;;;;;;;3.78;1.40;;;19.00;61.60;;;;;;4495637;31;20564;-83
2021/12/11 01:36:13;;;;;;;2.88;1.50;;;19.00;61.60;;;;;;4493033;31;20183;-84
2021/12/11 01:38:40;;;;;;;3.08;1.52;;;19.00;61.60;;;;;;4494271;31;20172;-83
2021/12/11 01:41:16;;;;;;;4.20;1.77;;;19.00;61.60;;;;;;4495350;31;20262;-84
2021/12/11 01:43:43;;;;;;;2.63;1.52;;;18.90;61.60;;;;;;4494422;31;20145;-83
2021/12/11 01:46:10;;;;;;;3.58;1.15;;;18.90;61.60;;;;;;4494839;31;20490;-81
2021/12/11 01:48:40;;;;;;;3.67;1.35;;;18.90;61.60;;;;;;4495777;31;20198;-82
2021/12/11 01:51:17;;;;;;;2.65;1.55;;;18.90;61.60;;;;;;4495832;31;20799;-85
2021/12/11 01:53:49;;;;;;;2.60;1.38;;;18.90;61.60;;;;;;4495093;31;20148;-85
2021/12/11 01:56:18;;;;;;;3.63;1.10;;;18.90;61.70;;;;;;4494781;31;20144;-81
2021/12/11 01:58:57;;;;;;;2.70;1.35;;;18.80;61.60;;;;;;4494267;31;20262;-82
2021/12/11 02:01:37;;;;;;;3.15;1.33;;;18.80;61.60;;;;;;4499258;31;20565;-82
2021/12/11 02:04:06;;;;;;;2.92;1.38;;;18.80;61.60;;;;;;4510027;31;20136;-82
2021/12/11 02:06:35;;;;;;;3.33;1.60;;;18.80;61.60;;;;;;4494689;31;20137;-81
2021/12/11 02:09:29;;;;;;;2.20;1.35;;;18.80;61.60;;;;;;4497907;31;20151;-82
2021/12/11 02:12:04;;;;;;;3.22;1.27;;;18.80;61.60;;;;;;4495601;31;20675;-82
2021/12/11 02:14:37;;;;;;;2.97;1.30;;;18.80;61.60;;;;;;4507110;31;20152;-82
2021/12/11 02:17:04;;;;;;;3.40;1.52;;;18.80;61.60;;;;;;4498256;31;20136;-80
2021/12/11 02:19:37;;;;;;;2.85;1.40;;;18.70;61.60;;;;;;4497386;31;20133;-82
2021/12/11 02:22:02;;;;;;;1.90;1.37;;;18.70;61.60;;;;;;4497442;31;20144;-82
2021/12/11 02:24:41;;;;;;;2.70;1.50;;;18.70;61.60;;;;;;4499315;31;20135;-85
2021/12/11 02:27:11;;;;;;;2.97;1.40;;;18.70;61.60;;;;;;4495185;31;20189;-84
2021/12/11 02:29:45;;;;;;;3.10;1.27;;;18.70;61.70;;;;;;4496834;31;20611;-83
2021/12/11 02:32:10;;;;;;;3.42;1.40;;;18.70;61.60;;;;;;4496816;31;20109;-81
2021/12/11 02:34:42;;;;;;;2.10;1.38;;;18.70;61.70;;;;;;4497724;31;20160;-82
2021/12/11 02:37:20;;;;;;;2.30;1.15;;;18.60;61.60;;;;;;4497701;31;20617;-82
2021/12/11 02:39:57;;;;;;;1.95;1.20;;;18.70;61.60;;;;;;4497107;31;20171;-82
2021/12/11 02:42:33;;;;;;;2.58;1.50;;;18.60;61.60;;;;;;4498920;31;20136;-82
2021/12/11 02:45:10;;;;;;;1.63;0.93;;;18.60;61.60;;;;;;4497251;31;20526;-82
2021/12/11 02:47:55;;;;;;;1.75;1.05;;;18.60;61.60;;;;;;4498156;31;20124;-83
2021/12/11 02:50:30;;;;;;;2.13;1.25;;;18.60;61.70;;;;;;4498935;31;20112;-82
2021/12/11 02:53:17;;;;;;;4.28;2.03;;;18.50;61.60;;;;;;4496872;31;20155;-82
2021/12/11 02:55:52;;;;;;;2.38;1.33;;;18.50;61.60;;;;;;4498338;31;20151;-82
2021/12/11 02:58:26;;;;;;;3.13;1.33;;;18.50;61.60;;;;;;4498057;31;20176;-81
2021/12/11 03:01:01;;;;;;;2.60;1.10;;;18.50;61.60;;;;;;4497245;31;20120;-82
2021/12/11 03:03:34;;;;;;;2.60;1.58;;;18.50;61.60;;;;;;4498703;31;20136;-82
2021/12/11 03:06:16;;;;;;;2.35;1.42;;;18.50;61.60;;;;;;4496842;31;20252;-82
2021/12/11 03:08:42;;;;;;;1.60;0.95;;;18.50;61.70;;;;;;4498316;31;20141;-81
2021/12/11 03:11:14;;;;;;;1.80;0.90;;;18.50;61.70;;;;;;4497796;31;20132;-82
2021/12/11 03:13:41;;;;;;;2.45;1.15;;;18.50;61.70;;;;;;4497367;31;20505;-82
2021/12/11 03:16:08;;;;;;;4.43;1.23;;;18.40;61.60;;;;;;4497347;31;20140;-82
2021/12/11 03:18:34;;;;;;;1.63;1.10;;;18.50;61.70;;;;;;4496084;31;20233;-82
2021/12/11 03:21:02;;;;;;;2.20;1.10;;;18.40;61.70;;;;;;4496969;31;20585;-82
2021/12/11 03:23:28;;;;;;;2.10;1.00;;;18.40;61.70;;;;;;4495558;31;20259;-81
2021/12/11 03:25:53;;;;;;;1.67;1.15;;;18.40;61.70;;;;;;4497922;31;20104;-81
2021/12/11 03:28:22;;;;;;;2.17;1.10;;;18.40;61.70;;;;;;4497505;31;20121;-82
2021/12/11 03:30:56;;;;;;;1.95;1.30;;;18.40;61.70;;;;;;4496673;31;20285;-81
2021/12/11 03:33:26;;;;;;;2.63;1.30;;;18.40;61.70;;;;;;4496914;31;20137;-82
2021/12/11 03:35:52;;;;;;;3.08;1.23;;;18.40;61.70;;;;;;4494607;31;20290;-81
2021/12/11 03:38:18;;;;;;;2.55;1.20;;;18.40;61.70;;;;;;4496969;31;20121;-82
2021/12/11 03:40:45;;;;;;;1.60;1.13;;;18.30;61.70;;;;;;4495409;31;20193;-82
2021/12/11 03:43:19;;;;;;;1.92;1.30;;;18.30;61.70;;;;;;4483523;31;20136;-82
2021/12/11 03:45:48;;;;;;;2.60;1.20;;;18.30;61.70;;;;;;4496482;31;20140;-82
2021/12/11 03:48:25;;;;;;;2.25;1.30;;;18.30;61.70;;;;;;4496466;31;20608;-82
2021/12/11 03:50:51;;;;;;;3.63;1.20;;;18.30;61.70;;;;;;4496667;31;20141;-82
2021/12/11 03:53:18;;;;;;;1.50;0.90;;;18.30;61.70;;;;;;4495247;31;20148;-82
2021/12/11 03:55:52;;;;;;;1.83;1.00;;;18.30;61.80;;;;;;4496439;31;20147;-82
2021/12/11 03:58:18;;;;;;;;;;;18.30;61.70;;;;;;4497603;31;20159;-82
2021/12/11 04:01:10;;;;;;;2.40;1.10;;;18.30;61.70;;;;;;4499320;31;20024;-81
2021/12/11 04:03:38;;;;;;;1.25;0.80;;;18.30;61.80;;;;;;4512475;31;20140;-82
2021/12/11 04:06:08;;;;;;;1.88;0.90;;;18.20;61.80;;;;;;4511979;31;20143;-82
2021/12/11 04:08:40;;;;;;;1.48;0.88;;;18.20;61.70;;;;;;4513492;31;20572;-82
2021/12/11 04:11:20;;;;;;;1.67;1.02;;;18.20;61.70;;;;;;4512544;31;20140;-82
2021/12/11 04:13:51;;;;;;;1.98;1.17;;;18.20;61.80;;;;;;4512280;31;20132;-81
2021/12/11 04:16:17;;;;;;;1.40;1.00;;;18.20;61.80;;;;;;4513578;31;20128;-81
2021/12/11 04:18:44;;;;;;;2.88;1.20;;;18.20;61.80;;;;;;4510384;31;20150;-81
2021/12/11 04:21:11;;;;;;;1.23;0.80;;;18.20;61.80;;;;;;4511986;31;20364;-81
2021/12/11 04:23:38;;;;;;;1.75;1.23;;;18.10;61.80;;;;;;4511984;31;20120;-81
2021/12/11 04:26:05;;;;;;;1.83;1.05;;;18.10;61.80;;;;;;4512806;31;20164;-82
2021/12/11 04:28:35;;;;;;;1.73;1.00;;;18.10;61.90;;;;;;4511645;31;20218;-82
2021/12/11 04:31:07;;;;;;;1.50;0.90;;;18.10;61.80;;;;;;4509921;31;20234;-82
2021/12/11 04:33:38;;;;;;;1.40;1.13;;;18.10;61.80;;;;;;4513304;31;20143;-82
2021/12/11 04:36:09;;;;;;;4.40;1.13;;;18.10;61.80;;;;;;4511415;31;20608;-81
2021/12/11 04:38:36;;;;;;;1.83;1.00;;;18.10;61.80;;;;;;4513381;31;20140;-82
2021/12/11 04:41:04;;;;;;;1.50;0.95;;;18.10;61.90;;;;;;4511730;31;20290;-82
2021/12/11 04:43:31;;;;;;;1.45;1.00;;;18.10;61.90;;;;;;4512374;31;20139;-82
2021/12/11 04:46:05;;;;;;;1.92;0.82;;;18.10;61.90;;;;;;4512613;31;20480;-81
2021/12/11 04:51:24;;;;;;;1.50;0.93;;;18.10;61.90;;;;;;4511672;31;20128;-81
2021/12/11 05:04:34;;;;;;;1.80;0.90;;;18.00;61.90;;;;;;4512673;31;20163;-82
2021/12/11 05:09:40;;;;;;;1.38;0.90;;;17.90;61.90;;;;;;4512257;31;20132;-82
2021/12/11 05:12:26;;;;;;;1.50;0.88;;;18.00;62.00;;;;;;4513250;31;20124;-82
2021/12/11 05:14:53;;;;;;;1.20;1.00;;;17.90;61.90;;;;;;4511381;31;20132;-82
2021/12/11 05:17:21;;;;;;;2.60;0.90;;;17.90;61.90;;;;;;4511389;31;20141;-82
2021/12/11 05:19:47;;;;;;;1.60;1.00;;;17.90;62.00;;;;;;4511870;31;20217;-82
2021/12/11 05:22:15;;;;;;;2.05;0.90;;;17.90;61.90;;;;;;4511697;31;20138;-82
2021/12/11 05:24:46;;;;;;;1.25;0.95;;;17.90;62.00;;;;;;4512789;31;20132;-81
2021/12/11 05:27:12;;;;;;;1.20;0.90;;;17.90;62.00;;;;;;4510864;31;20251;-82
2021/12/11 05:29:39;;;;;;;1.10;1.00;;;17.90;62.00;;;;;;4512964;31;20485;-82
2021/12/11 05:32:09;;;;;;;1.90;0.90;;;17.90;62.00;;;;;;4511301;31;20128;-83
2021/12/11 05:34:35;;;;;;;2.55;1.10;;;17.90;62.00;;;;;;4513045;31;20189;-81
2021/12/11 05:37:02;;;;;;;0.95;0.80;;;17.90;62.00;;;;;;4510543;31;20120;-81
2021/12/11 05:39:28;;;;;;;1.20;0.68;;;17.90;62.00;;;;;;4511680;31;20670;-81
2021/12/11 05:41:54;;;;;;;1.17;0.73;;;17.80;62.00;;;;;;4514526;31;20133;-81
2021/12/11 05:44:23;;;;;;;1.52;0.80;;;17.80;62.90;;;;;;4513578;31;20549;-82
2021/12/11 05:46:50;;;;;;;1.33;0.80;;;17.80;62.00;;;;;;4515516;31;20142;-81
2021/12/11 05:49:16;;;;;;;1.35;0.75;;;17.80;62.00;;;;;;4512780;31;20189;-82
2021/12/11 05:51:45;;;;;;;0.77;0.70;;;17.80;62.10;;;;;;4515322;31;20140;-81
2021/12/11 05:54:21;;;;;;;1.35;0.98;;;17.80;62.00;;;;;;4514832;31;20247;-81
2021/12/11 05:56:47;;;;;;;1.50;0.80;;;17.80;62.00;;;;;;4514969;31;20126;-81
2021/12/11 05:59:16;;;;;;;2.03;0.82;;;17.80;62.00;;;;;;4514602;31;20139;-82
2021/12/11 06:01:52;;;;;;;1.45;0.82;;;17.80;62.00;;;;;;4514049;31;20136;-82
2021/12/11 06:04:26;;;;;;;1.35;0.77;;;17.80;62.90;;;;;;4515619;31;20136;-81
2021/12/11 06:06:52;;;;;;;;;;;17.80;62.10;;;;;;4515696;31;20143;-82
2021/12/11 06:09:22;;;;;;;1.42;0.90;;;17.70;61.90;;;;;;4514676;31;20021;-82
2021/12/11 06:11:50;;;;;;;1.15;0.82;;;17.70;62.10;;;;;;4515084;31;20146;-82
2021/12/11 06:14:18;;;;;;;0.95;0.80;;;17.70;62.10;;;;;;4513404;31;20128;-82
2021/12/11 06:16:46;;;;;;;1.00;0.77;;;17.70;62.10;;;;;;4515218;31;20143;-81
2021/12/11 06:19:12;;;;;;;1.67;0.80;;;17.70;62.10;;;;;;4513263;31;20206;-81
2021/12/11 06:21:38;;;;;;;1.42;0.90;;;17.70;62.10;;;;;;4513856;31;20125;-82
2021/12/11 06:24:05;;;;;;;0.80;0.70;;;17.70;62.10;;;;;;4514335;31;20132;-82
2021/12/11 06:26:31;;;;;;;1.50;0.90;;;17.70;62.20;;;;;;4514190;31;20135;-82
2021/12/11 06:28:58;;;;;;;1.08;0.70;;;17.70;62.10;;;;;;4514773;31;20112;-82
2021/12/11 06:31:24;;;;;;;1.10;0.70;;;17.70;62.10;;;;;;4513072;31;20422;-81
2021/12/11 06:33:53;;;;;;;1.52;0.75;;;17.60;62.10;;;;;;4514627;31;20163;-82
2021/12/11 06:36:20;;;;;;;1.20;0.80;;;17.60;62.10;;;;;;4512853;31;20166;-82
2021/12/11 06:38:52;;;;;;;1.63;0.90;;;17.60;62.10;;;;;;4514591;31;20143;-82
2021/12/11 06:41:21;;;;;;;1.23;0.68;;;17.60;62.10;;;;;;4501114;31;20136;-81
2021/12/11 06:43:49;;;;;;;1.52;0.80;;;17.60;62.10;;;;;;4497596;31;20278;-81
2021/12/11 06:46:15;;;;;;;1.67;0.90;;;17.60;62.10;;;;;;4497054;31;20623;-82
2021/12/11 06:48:42;;;;;;;1.27;0.77;;;17.60;62.10;;;;;;4505347;31;20812;-83
2021/12/11 06:51:08;;;;;;;1.52;1.25;;;17.60;62.10;;;;;;4498341;31;20133;-82
2021/12/11 06:53:36;;;;;;;1.67;0.80;;;17.60;62.10;;;;;;4495703;31;20136;-81
2021/12/11 06:56:05;;;;;;;1.70;0.80;;;17.60;62.20;;;;;;4498971;31;21003;-81
2021/12/11 06:58:31;;;;;;;0.90;0.85;;;17.60;62.20;;;;;;4497250;31;20259;-81
2021/12/11 07:00:58;;;;;;;1.65;0.80;;;17.60;62.20;;;;;;4497244;31;20637;-81
2021/12/11 07:03:25;;;;;;;0.90;0.70;;;17.50;62.90;;;;;;4496393;31;20229;-81
2021/12/11 07:05:51;;;;;;;1.63;1.02;;;17.50;62.10;;;;;;4495357;31;20180;-81
2021/12/11 07:08:18;;;;;;;1.52;0.88;;;17.50;62.10;;;;;;4507054;31;20250;-81
2021/12/11 07:10:46;;;;;;;1.10;0.90;;;17.50;63.00;;;;;;4507813;31;20132;-81
2021/12/11 07:13:13;;;;;;;1.10;1.00;;;17.50;62.20;;;;;;4497023;31;20493;-80
2021/12/11 07:15:39;;;;;;;0.90;0.70;;;17.50;62.20;;;;;;4496422;31;20125;-81
2021/12/11 07:18:05;;;;;;;1.15;0.80;;;17.50;62.10;;;;;;4495144;31;20258;-81
2021/12/11 07:20:32;;;;;;;1.35;0.80;;;17.50;62.10;;;;;;4505019;31;20185;-82
2021/12/11 07:22:59;;;;;;;1.02;0.80;;;17.50;62.20;;;;;;4510930;31;20152;-82
2021/12/11 07:25:31;;;;;;;1.13;0.77;;;17.50;62.10;;;;;;4511187;31;20188;-81
2021/12/11 07:28:03;;;;;;;1.50;0.75;;;17.50;62.20;;;;;;4510910;31;20253;-80
2021/12/11 07:30:32;;;;;;;1.73;0.70;;;17.50;62.20;;;;;;4512313;31;20136;-80
2021/12/11 07:33:01;;;;;;;1.50;0.85;;;17.40;62.10;;;;;;4502322;31;20127;-81
2021/12/11 07:35:27;;;;;;;1.25;0.90;;;17.40;62.10;;;;;;4496559;31;20194;-81
2021/12/11 07:37:54;;;;;;;1.05;0.70;;;17.40;62.10;;;;;;4496829;31;20214;-80
2021/12/11 07:40:24;;;;;;;1.70;0.90;;;17.40;63.00;;;;;;4496387;31;20174;-81
2021/12/11 07:42:51;;;;;;;1.85;0.95;;;17.40;62.10;;;;;;4499524;31;20132;-83
2021/12/11 07:45:17;;;;;;;1.30;0.90;;;17.40;62.10;;;;;;4497631;31;20120;-81
2021/12/11 07:47:43;;;;;;;1.27;0.98;;;17.40;62.10;;;;;;4500443;31;20140;-82
2021/12/11 07:50:10;;;;;;;1.50;0.93;;;17.40;62.10;;;;;;4500655;31;20120;-74
2021/12/11 07:52:36;;;;;;;2.15;1.42;;;17.40;62.10;;;;;;4481350;31;20147;-73
2021/12/11 07:55:03;;;;;;;5.25;4.00;;;17.40;62.00;;;;;;4496569;31;20116;-74
2021/12/11 07:57:29;;;;;;;4.60;4.20;;;17.30;60.80;;;;;;4493485;31;20128;-77
2021/12/11 07:59:55;;;;;;;4.65;3.55;;;17.20;59.70;;;;;;4501877;31;20140;-76
2021/12/11 08:02:21;;;;;;;4.10;3.38;;;17.20;59.90;;;;;;4495967;31;20143;-78
2021/12/11 08:04:47;;;;;;;3.95;3.28;;;17.20;60.20;;;;;;4498919;31;20187;-80
2021/12/11 08:07:13;;;;;;;4.38;3.40;;;17.20;60.30;;;;;;4495887;31;20132;-77
2021/12/11 08:09:39;;;;;;;4.45;3.08;;;17.20;60.20;;;;;;4495285;31;20770;-78
2021/12/11 08:12:06;;;;;;;4.53;3.17;;;17.20;60.20;;;;;;4496112;31;20128;-77
2021/12/11 08:14:33;;;;;;;6.40;2.92;;;17.20;60.10;;;;;;4495450;31;20136;-78
2021/12/11 08:17:05;;;;;;;4.32;3.00;;;17.30;60.00;;;;;;4484619;31;20152;-74
2021/12/11 08:19:33;;;;;;;3.38;2.10;;;17.30;60.00;;;;;;4493562;31;20210;-78
2021/12/11 08:22:02;;;;;;;5.65;2.42;;;17.40;60.00;;;;;;4494631;31;20186;-78
2021/12/11 08:24:29;;;;;;;3.97;2.03;;;17.50;59.90;;;;;;4494173;31;20191;-77
2021/12/11 08:27:00;;;;;;;2.20;1.88;;;17.60;59.70;;;;;;4494970;31;20218;-77
2021/12/11 08:29:26;;;;;;;5.15;1.90;;;17.70;59.40;;;;;;4495895;31;20140;-76
2021/12/11 08:31:55;;;;;;;4.10;1.90;;;17.90;59.10;;;;;;4502136;31;20213;-76
2021/12/11 08:34:22;;;;;;;3.45;2.05;;;18.00;58.90;;;;;;4510399;31;20160;-76
2021/12/11 08:36:49;;;;;;;3.15;1.60;;;18.10;58.40;;;;;;4500936;31;20150;-76
2021/12/11 08:39:16;;;;;;;2.63;1.73;;;18.30;58.30;;;;;;4469399;31;20129;-76
2021/12/11 08:41:43;;;;;;;1.90;1.30;;;18.40;57.90;;;;;;4496377;31;20156;-76
2021/12/11 08:44:13;;;;;;;2.42;1.35;;;18.50;57.60;;;;;;4495690;31;20128;-77
2021/12/11 08:46:43;;;;;;;3.88;1.60;;;18.60;57.30;;;;;;4495766;31;20121;-76
2021/12/11 08:49:13;;;;;;;2.53;1.50;;;18.70;57.20;;;;;;4494301;31;20124;-75
2021/12/11 08:52:03;;;;;;;1.80;1.23;;;18.80;57.00;;;;;;4495941;31;20155;-76
2021/12/11 08:54:31;;;;;;;5.22;1.65;;;18.90;56.80;;;;;;4501783;31;20167;-76
2021/12/11 08:57:00;;;;;;;2.83;1.40;;;19.00;56.50;;;;;;4511510;31;20191;-75
2021/12/11 08:59:30;;;;;;;6.15;1.30;;;19.10;56.40;;;;;;4511373;31;20146;-74
2021/12/11 09:02:10;;;;;;;4.47;1.40;;;19.30;56.40;;;;;;4511375;31;20128;-80
2021/12/11 09:04:48;;;;;;;3.38;1.30;;;19.30;56.20;;;;;;4512334;31;20136;-75
2021/12/11 09:07:29;;;;;;;1.42;1.08;;;19.50;56.40;;;;;;4511905;31;20129;-77
2021/12/11 09:10:06;;;;;;;4.38;1.50;;;19.60;56.20;;;;;;4505121;31;20144;-75
2021/12/11 09:12:39;;;;;;;3.60;1.20;;;19.70;56.10;;;;;;4495262;31;20553;-75
2021/12/11 09:15:14;;;;;;;2.88;1.52;;;19.80;55.90;;;;;;4494167;31;20136;-81
2021/12/11 09:17:48;;;;;;;2.65;1.42;;;20.00;55.70;;;;;;4499505;31;20180;-81
2021/12/11 09:20:24;;;;;;;3.45;1.33;;;20.10;55.30;;;;;;4498297;31;20168;-74
2021/12/11 09:23:02;;;;;;;5.15;1.40;;;20.20;55.20;;;;;;4498417;31;20131;-80
2021/12/11 09:25:31;;;;;;;3.92;1.70;;;20.30;54.90;;;;;;4499948;31;20194;-80
2021/12/11 09:28:18;;;;;;;4.63;1.40;;;20.40;54.60;;;;;;4497220;31;20145;-75
2021/12/11 09:30:53;;;;;;;4.10;1.33;;;20.50;54.40;;;;;;4498850;31;20117;-78
2021/12/11 09:33:26;;;;;;;3.65;1.00;;;20.70;54.30;;;;;;4499010;31;20454;-74
2021/12/11 09:36:00;;;;;;;2.00;1.17;;;20.70;54.00;;;;;;4496954;31;20290;-75
2021/12/11 09:38:31;;;;;;;2.85;1.27;;;20.80;53.90;;;;;;4499888;31;20282;-73
2021/12/11 09:40:57;;;;;;;3.72;1.25;;;20.90;53.70;;;;;;4498375;31;20627;-73
2021/12/11 09:43:36;;;;;;;2.30;1.00;;;21.00;53.60;;;;;;4498199;31;20129;-77
2021/12/11 09:46:05;;;;;;;4.28;1.55;;;21.00;53.50;;;;;;4502117;31;20132;-71
2021/12/11 09:48:32;;;;;;;4.50;1.40;;;21.10;53.30;;;;;;4512821;31;20121;-78
2021/12/11 09:51:03;;;;;;;3.47;1.17;;;21.10;53.30;;;;;;4514482;31;20569;-77
2021/12/11 09:53:37;;;;;;;2.78;1.00;;;21.20;53.20;;;;;;4500893;31;20322;-76
2021/12/11 09:56:08;;;;;;;2.63;1.05;;;21.20;53.10;;;;;;4497893;31;20179;-77
2021/12/11 09:58:37;;;;;;;2.08;1.00;;;21.30;53.00;;;;;;4508426;31;20139;-76
2021/12/11 10:01:18;;;;;;;2.30;1.35;;;21.30;52.90;;;;;;4513416;31;20133;-76
2021/12/11 10:03:57;;;;;;;2.38;1.40;;;21.30;52.90;;;;;;4508600;31;20132;-77
2021/12/11 10:09:26;;;;;;;5.40;1.33;;;21.40;52.90;;;;;;4497867;31;20132;-76
2021/12/11 10:12:01;;;;;;;2.40;1.25;;;21.40;52.90;;;;;;4497665;31;20136;-82
2021/12/11 10:14:40;;;;;;;4.25;1.15;;;21.40;52.80;;;;;;4498452;31;20135;-83
2021/12/11 10:17:24;;;;;;;2.28;1.20;;;21.40;52.90;;;;;;4499717;31;20313;-77
2021/12/11 10:19:55;;;;;;;2.10;0.82;;;21.40;52.90;;;;;;4509145;31;20139;-77
2021/12/11 10:22:25;;;;;;;4.30;1.25;;;21.40;53.10;;;;;;4510197;31;20555;-81
2021/12/11 10:24:53;;;;;;;1.88;1.00;;;21.30;53.20;;;;;;4504434;31;20136;-77
2021/12/11 10:27:24;;;;;;;5.53;1.00;;;21.30;53.40;;;;;;4496393;31;20133;-81
2021/12/11 10:29:52;;;;;;;4.50;1.20;;;21.20;53.50;;;;;;4498002;31;20137;-77
2021/12/11 10:32:23;;;;;;;2.40;1.17;;;21.10;53.70;;;;;;4496849;31;20109;-77
2021/12/11 10:34:53;;;;;;;1.83;1.02;;;21.10;54.00;;;;;;4498038;31;20190;-77
2021/12/11 10:37:29;;;;;;;1.88;1.08;;;21.00;54.00;;;;;;4498095;31;20120;-76
2021/12/11 10:39:59;;;;;;;2.17;1.20;;;20.90;54.10;;;;;;4496399;31;20121;-73
2021/12/11 10:42:27;;;;;;;2.45;1.10;;;20.90;54.30;;;;;;4497512;31;20137;-74
2021/12/11 10:44:56;;;;;;;1.63;0.90;;;20.80;54.50;;;;;;4497046;31;20124;-75
2021/12/11 10:47:33;;;;;;;2.65;1.00;;;20.80;54.90;;;;;;4497635;31;20255;-76
2021/12/11 10:50:03;;;;;;;5.03;1.40;;;20.70;54.80;;;;;;4497799;31;20139;-70
2021/12/11 10:52:31;;;;;;;2.10;1.20;;;20.70;54.80;;;;;;4483029;31;20194;-73
2021/12/11 10:55:00;;;;;;;3.42;1.10;;;20.70;54.90;;;;;;4497039;31;20129;-75
2021/12/11 10:57:27;;;;;;;1.65;1.20;;;20.70;54.90;;;;;;4495685;31;20129;-75
2021/12/11 10:59:56;;;;;;;1.08;0.90;;;20.70;54.80;;;;;;4483517;31;20135;-78
2021/12/11 11:02:31;;;;;;;1.40;0.88;;;20.70;54.90;;;;;;4496450;31;20136;-76
2021/12/11 11:04:59;;;;;;;3.22;1.00;;;20.80;55.00;;;;;;4497413;31;20128;-73
2021/12/11 11:07:26;;;;;;;4.28;0.93;;;20.80;55.10;;;;;;4496458;31;20140;-72
2021/12/11 11:09:54;;;;;;;1.40;1.10;;;20.80;55.10;;;;;;4508568;31;20136;-73
2021/12/11 11:12:24;;;;;;;1.50;0.70;;;20.80;55.20;;;;;;4496678;31;20306;-73
2021/12/11 11:14:53;;;;;;;1.13;0.60;;;20.90;55.30;;;;;;4495369;31;20144;-72
2021/12/11 11:17:22;;;;;;;2.50;1.10;;;20.90;55.30;;;;;;4496639;31;20230;-72
2021/12/11 11:19:49;;;;;;;3.25;1.40;;;20.90;55.40;;;;;;4496859;31;20209;-72
2021/12/11 11:22:23;;;;;;;3.53;1.75;;;20.80;55.40;;;;;;4496296;31;20278;-75
2021/12/11 11:24:54;;;;;;;7.90;2.15;;;20.80;55.20;;;;;;4496057;31;20148;-69
2021/12/11 11:27:21;;;;;;;3.58;2.10;;;20.80;54.60;;;;;;4496729;31;20605;-73
2021/12/11 11:29:48;;;;;;;3.85;1.90;;;20.70;54.40;;;;;;4496824;31;20136;-73
2021/12/11 11:32:31;;;;;;;5.40;1.92;;;20.70;54.20;;;;;;4495544;31;20128;-73
2021/12/11 11:34:59;;;;;;;4.68;1.58;;;20.70;54.10;;;;;;4496029;31;20270;-72
2021/12/11 11:37:25;;;;;;;4.15;1.60;;;20.70;54.10;;;;;;4483474;31;20140;-74
2021/12/11 11:39:51;;;;;;;3.15;1.50;;;20.80;54.00;;;;;;4481921;31;20143;-73
2021/12/11 11:42:20;;;;;;;5.65;1.20;;;20.80;54.00;;;;;;4496750;31;20121;-73
2021/12/11 11:44:49;;;;;;;3.25;1.30;;;20.80;53.90;;;;;;4494906;31;20140;-72
2021/12/11 11:47:17;;;;;;;2.30;1.23;;;20.90;53.80;;;;;;4496709;31;20282;-73
2021/12/11 11:49:43;;;;;;;3.00;1.30;;;20.80;53.70;;;;;;4495505;31;20178;-73
2021/12/11 11:52:13;;;;;;;2.33;1.25;;;20.90;53.80;;;;;;4495734;31;20151;-73
2021/12/11 11:54:41;;;;;;;2.35;1.20;;;20.90;53.80;;;;;;4495963;31;20121;-68
2021/12/11 11:57:16;;;;;;;6.18;1.45;;;20.90;53.80;;;;;;4494669;31;20155;-73
2021/12/11 11:59:42;;;;;;;3.95;1.48;;;20.80;53.70;;;;;;4497597;31;20120;-72
2021/12/11 12:02:12;;;;;;;2.28;0.98;;;20.80;53.80;;;;;;4494830;31;20132;-71
2021/12/11 12:04:39;;;;;;;4.07;1.23;;;20.80;53.90;;;;;;4496170;31;20262;-73
2021/12/11 12:07:07;;;;;;;7.53;1.25;;;20.70;54.80;;;;;;4469226;31;20129;-73
2021/12/11 12:09:46;;;;;;;4.30;1.23;;;20.70;54.10;;;;;;4496568;31;20136;-73
2021/12/11 12:12:13;;;;;;;3.78;1.30;;;20.70;54.10;;;;;;4495910;31;20209;-73
2021/12/11 12:14:41;;;;;;;3.03;1.20;;;20.70;54.30;;;;;;4494800;31;20133;-67
2021/12/11 12:17:11;;;;;;;10.85;2.80;;;20.70;54.30;;;;;;4495947;31;20145;-74
2021/12/11 12:19:37;;;;;;;12.23;4.63;;;20.70;53.70;;;;;;4501319;31;20136;-75
2021/12/11 12:22:07;;;;;;;15.25;6.47;;;20.60;53.20;;;;;;4503071;31;20144;-74
2021/12/11 12:24:36;;;;;;;11.10;4.40;;;20.70;53.10;;;;;;4494920;31;20140;-76
2021/12/11 12:27:07;;;;;;;12.15;5.05;;;20.70;53.20;;;;;;4505079;31;20143;-75
2021/12/11 12:29:34;;;;;;;13.05;4.78;;;20.70;53.20;;;;;;4497721;31;20158;-74
2021/12/11 12:32:07;;;;;;;11.23;4.80;;;20.70;53.20;;;;;;4494801;31;20171;-74
2021/12/11 12:34:33;;;;;;;11.50;4.20;;;20.80;53.40;;;;;;4495061;31;20170;-76
2021/12/11 12:37:00;;;;;;;12.55;3.85;;;20.80;53.40;;;;;;4481724;31;20120;-75
2021/12/11 12:39:37;;;;;;;11.85;4.30;;;20.80;53.40;;;;;;4495856;31;20257;-68
2021/12/11 12:42:23;;;;;;;11.27;3.42;;;20.90;53.50;;;;;;4496411;31;20156;-71
2021/12/11 12:45:00;;;;;;;11.55;4.15;;;20.90;53.70;;;;;;4494150;31;20120;-72
2021/12/11 12:47:31;;;;;;;10.23;3.42;;;20.90;53.70;;;;;;4495290;31;20140;-70
2021/12/11 12:50:00;;;;;;;10.63;3.78;;;20.90;53.80;;;;;;4494262;31;20132;-73
2021/12/11 12:52:33;;;;;;;7.03;3.10;;;20.90;53.80;;;;;;4495085;31;20148;-72
2021/12/11 12:55:04;;;;;;;5.83;3.00;;;21.00;53.90;;;;;;4495694;31;20141;-74
2021/12/11 12:57:42;;;;;;;5.88;2.90;;;20.90;53.90;;;;;;4507144;31;20151;-73
2021/12/11 13:00:23;;;;;;;9.75;3.00;;;21.00;54.10;;;;;;4509988;31;20132;-71
2021/12/11 13:02:53;;;;;;;9.30;3.17;;;21.00;54.10;;;;;;4497797;31;20132;-74
2021/12/11 13:05:48;;;;;;;6.45;2.75;;;21.00;54.30;;;;;;4494169;31;20197;-70
2021/12/11 13:08:19;;;;;;;6.53;3.05;;;21.00;54.50;;;;;;4493087;31;20141;-71
2021/12/11 13:10:52;;;;;;;11.25;3.00;;;21.00;54.70;;;;;;4494199;31;20139;-72
2021/12/11 13:13:20;;;;;;;6.07;2.60;;;21.00;54.80;;;;;;4493991;31;20143;-72
2021/12/11 13:15:54;;;;;;;6.50;2.80;;;21.00;54.90;;;;;;4495103;31;20116;-73
2021/12/11 13:18:26;;;;;;;8.88;3.00;;;21.00;55.00;;;;;;4495072;31;20419;-72
2021/12/11 13:21:06;;;;;;;6.80;3.03;;;21.00;55.10;;;;;;4504837;31;20131;-75
2021/12/11 13:23:39;;;;;;;7.82;2.67;;;21.00;55.10;;;;;;4507069;31;20530;-74
2021/12/11 13:26:07;;;;;;;5.65;2.90;;;20.90;55.20;;;;;;4510937;31;20282;-74
2021/12/11 13:28:36;;;;;;;7.47;2.67;;;20.90;55.30;;;;;;4510738;31;20140;-74